sensor_id;sensor_type;location;lat;lon;timestamp;temperature;humidity
38398;DHT22;24179;52.094;4.408;2024-01-25T00:00:42;8.30;99.90
38398;DHT22;24179;52.094;4.408;2024-01-25T00:03:42;8.30;99.90
38398;DHT22;24179;52.094;4.408;2024-01-25T00:06:43;8.30;99.90
38398;DHT22;24179;52.094;4.408;2024-01-25T00:09:43;8.30;99.90
38398;DHT22;24179;52.094;4.408;2024-01-25T00:12:46;8.30;99.90
38398;DHT22;24179;52.094;4.408;2024-01-25T00:15:50;8.20;99.90
38398;DHT22;24179;52.094;4.408;2024-01-25T00:18:50;8.20;99.90
38398;DHT22;24179;52.094;4.408;2024-01-25T00:21:51;8.30;99.90
38398;DHT22;24179;52.094;4.408;2024-01-25T00:24:51;8.20;99.90
38398;DHT22;24179;52.094;4.408;2024-01-25T00:27:52;8.20;99.90
38398;DHT22;24179;52.094;4.408;2024-01-25T00:30:53;8.20;99.90
38398;DHT22;24179;52.094;4.408;2024-01-25T00:33:54;8.20;99.90
38398;DHT22;24179;52.094;4.408;2024-01-25T00:36:55;8.20;99.90
38398;DHT22;24179;52.094;4.408;2024-01-25T00:39:55;8.20;99.90
38398;DHT22;24179;52.094;4.408;2024-01-25T00:42:56;8.10;99.90
38398;DHT22;24179;52.094;4.408;2024-01-25T00:45:57;8.10;99.90
38398;DHT22;24179;52.094;4.408;2024-01-25T00:48:58;8.10;99.90
38398;DHT22;24179;52.094;4.408;2024-01-25T00:51:59;8.10;99.90
38398;DHT22;24179;52.094;4.408;2024-01-25T00:55:03;8.10;99.90
38398;DHT22;24179;52.094;4.408;2024-01-25T00:58:04;8.00;99.90
38398;DHT22;24179;52.094;4.408;2024-01-25T01:01:05;8.10;99.90
38398;DHT22;24179;52.094;4.408;2024-01-25T01:04:06;8.00;99.90
38398;DHT22;24179;52.094;4.408;2024-01-25T01:07:07;8.00;99.90
38398;DHT22;24179;52.094;4.408;2024-01-25T01:10:08;8.00;99.90
38398;DHT22;24179;52.094;4.408;2024-01-25T01:13:09;8.00;99.90
38398;DHT22;24179;52.094;4.408;2024-01-25T01:16:10;8.00;99.90
38398;DHT22;24179;52.094;4.408;2024-01-25T01:19:11;8.00;99.90
38398;DHT22;24179;52.094;4.408;2024-01-25T01:22:11;8.00;99.90
38398;DHT22;24179;52.094;4.408;2024-01-25T01:25:12;7.90;99.90
38398;DHT22;24179;52.094;4.408;2024-01-25T01:28:12;7.90;99.90
38398;DHT22;24179;52.094;4.408;2024-01-25T01:31:13;7.90;99.90
38398;DHT22;24179;52.094;4.408;2024-01-25T01:34:14;7.90;99.90
38398;DHT22;24179;52.094;4.408;2024-01-25T01:37:15;7.80;99.90
38398;DHT22;24179;52.094;4.408;2024-01-25T01:40:15;7.80;99.90
38398;DHT22;24179;52.094;4.408;2024-01-25T01:43:19;7.80;99.90
38398;DHT22;24179;52.094;4.408;2024-01-25T01:46:35;7.90;99.90
38398;DHT22;24179;52.094;4.408;2024-01-25T01:49:38;7.80;99.90
38398;DHT22;24179;52.094;4.408;2024-01-25T01:52:39;7.80;99.90
38398;DHT22;24179;52.094;4.408;2024-01-25T01:55:40;7.80;99.90
38398;DHT22;24179;52.094;4.408;2024-01-25T01:58:42;7.70;99.90
38398;DHT22;24179;52.094;4.408;2024-01-25T02:01:43;7.70;99.90
38398;DHT22;24179;52.094;4.408;2024-01-25T02:04:44;7.80;99.90
38398;DHT22;24179;52.094;4.408;2024-01-25T02:07:45;7.70;99.90
38398;DHT22;24179;52.094;4.408;2024-01-25T02:10:46;7.70;99.90
38398;DHT22;24179;52.094;4.408;2024-01-25T02:13:46;7.60;99.90
38398;DHT22;24179;52.094;4.408;2024-01-25T02:16:47;7.60;99.90
38398;DHT22;24179;52.094;4.408;2024-01-25T02:19:48;7.70;99.90
38398;DHT22;24179;52.094;4.408;2024-01-25T02:22:49;7.60;99.90
38398;DHT22;24179;52.094;4.408;2024-01-25T02:25:49;7.60;99.90
38398;DHT22;24179;52.094;4.408;2024-01-25T02:28:50;7.60;99.90
38398;DHT22;24179;52.094;4.408;2024-01-25T02:31:50;7.60;99.90
38398;DHT22;24179;52.094;4.408;2024-01-25T02:34:51;7.50;99.90
38398;DHT22;24179;52.094;4.408;2024-01-25T02:37:51;7.50;99.90
38398;DHT22;24179;52.094;4.408;2024-01-25T02:40:52;7.50;99.90
38398;DHT22;24179;52.094;4.408;2024-01-25T02:43:56;7.50;99.90
38398;DHT22;24179;52.094;4.408;2024-01-25T02:46:56;7.50;99.90
38398;DHT22;24179;52.094;4.408;2024-01-25T02:49:57;7.50;99.90
38398;DHT22;24179;52.094;4.408;2024-01-25T02:52:58;7.50;99.90
38398;DHT22;24179;52.094;4.408;2024-01-25T02:55:59;7.50;99.90
38398;DHT22;24179;52.094;4.408;2024-01-25T02:59:00;7.40;99.90
38398;DHT22;24179;52.094;4.408;2024-01-25T03:02:00;7.40;99.90
38398;DHT22;24179;52.094;4.408;2024-01-25T03:05:01;7.40;99.90
38398;DHT22;24179;52.094;4.408;2024-01-25T03:08:01;7.40;99.90
38398;DHT22;24179;52.094;4.408;2024-01-25T03:11:02;7.40;99.90
38398;DHT22;24179;52.094;4.408;2024-01-25T03:14:05;7.40;99.90
38398;DHT22;24179;52.094;4.408;2024-01-25T03:17:05;7.30;99.90
38398;DHT22;24179;52.094;4.408;2024-01-25T03:20:06;7.30;99.90
38398;DHT22;24179;52.094;4.408;2024-01-25T03:23:07;7.30;99.90
38398;DHT22;24179;52.094;4.408;2024-01-25T03:26:08;7.30;99.90
38398;DHT22;24179;52.094;4.408;2024-01-25T03:29:08;7.20;99.90
38398;DHT22;24179;52.094;4.408;2024-01-25T03:32:12;7.20;99.90
38398;DHT22;24179;52.094;4.408;2024-01-25T03:35:12;7.20;99.90
38398;DHT22;24179;52.094;4.408;2024-01-25T03:38:13;7.30;99.90
38398;DHT22;24179;52.094;4.408;2024-01-25T03:41:14;7.40;99.90
38398;DHT22;24179;52.094;4.408;2024-01-25T03:44:14;7.20;99.90
38398;DHT22;24179;52.094;4.408;2024-01-25T03:47:15;7.20;99.90
38398;DHT22;24179;52.094;4.408;2024-01-25T03:50:16;7.20;99.90
38398;DHT22;24179;52.094;4.408;2024-01-25T03:53:16;7.10;99.90
38398;DHT22;24179;52.094;4.408;2024-01-25T03:56:17;7.10;99.90
38398;DHT22;24179;52.094;4.408;2024-01-25T03:59:18;7.10;99.90
38398;DHT22;24179;52.094;4.408;2024-01-25T04:02:19;7.10;99.90
38398;DHT22;24179;52.094;4.408;2024-01-25T04:05:20;7.10;99.90
38398;DHT22;24179;52.094;4.408;2024-01-25T04:08:21;7.00;99.90
38398;DHT22;24179;52.094;4.408;2024-01-25T04:11:21;7.00;99.90
38398;DHT22;24179;52.094;4.408;2024-01-25T04:14:22;7.00;99.90
38398;DHT22;24179;52.094;4.408;2024-01-25T04:17:22;7.00;99.90
38398;DHT22;24179;52.094;4.408;2024-01-25T04:20:23;7.00;99.90
38398;DHT22;24179;52.094;4.408;2024-01-25T04:23:23;7.00;99.90
38398;DHT22;24179;52.094;4.408;2024-01-25T04:26:24;6.90;99.90
38398;DHT22;24179;52.094;4.408;2024-01-25T04:29:24;7.00;99.90
38398;DHT22;24179;52.094;4.408;2024-01-25T04:32:25;6.90;99.90
38398;DHT22;24179;52.094;4.408;2024-01-25T04:35:26;6.90;99.90
38398;DHT22;24179;52.094;4.408;2024-01-25T04:38:26;6.90;99.90
38398;DHT22;24179;52.094;4.408;2024-01-25T04:41:27;6.90;99.90
38398;DHT22;24179;52.094;4.408;2024-01-25T04:44:27;6.90;99.90
38398;DHT22;24179;52.094;4.408;2024-01-25T04:47:28;6.90;99.90
38398;DHT22;24179;52.094;4.408;2024-01-25T04:50:28;6.80;99.90
38398;DHT22;24179;52.094;4.408;2024-01-25T04:53:29;6.80;99.90
38398;DHT22;24179;52.094;4.408;2024-01-25T04:56:29;6.80;99.90
38398;DHT22;24179;52.094;4.408;2024-01-25T04:59:30;6.80;99.90
38398;DHT22;24179;52.094;4.408;2024-01-25T05:02:31;6.80;99.90
38398;DHT22;24179;52.094;4.408;2024-01-25T05:05:31;6.80;99.90
38398;DHT22;24179;52.094;4.408;2024-01-25T05:08:32;6.70;99.90
38398;DHT22;24179;52.094;4.408;2024-01-25T05:11:32;6.70;99.90
38398;DHT22;24179;52.094;4.408;2024-01-25T05:14:33;6.70;99.90
38398;DHT22;24179;52.094;4.408;2024-01-25T05:17:33;6.70;99.90
38398;DHT22;24179;52.094;4.408;2024-01-25T05:20:34;6.70;99.90
38398;DHT22;24179;52.094;4.408;2024-01-25T05:23:37;6.70;99.90
38398;DHT22;24179;52.094;4.408;2024-01-25T05:26:37;6.70;99.90
38398;DHT22;24179;52.094;4.408;2024-01-25T05:29:39;6.70;99.90
38398;DHT22;24179;52.094;4.408;2024-01-25T05:32:39;6.60;99.90
38398;DHT22;24179;52.094;4.408;2024-01-25T05:35:40;6.70;99.90
38398;DHT22;24179;52.094;4.408;2024-01-25T05:38:40;6.60;99.90
38398;DHT22;24179;52.094;4.408;2024-01-25T05:41:41;6.60;99.90
38398;DHT22;24179;52.094;4.408;2024-01-25T05:44:41;6.60;99.90
38398;DHT22;24179;52.094;4.408;2024-01-25T05:47:42;6.60;99.90
38398;DHT22;24179;52.094;4.408;2024-01-25T05:50:43;6.60;99.90
38398;DHT22;24179;52.094;4.408;2024-01-25T05:53:44;6.60;99.90
38398;DHT22;24179;52.094;4.408;2024-01-25T05:56:44;6.50;99.90
38398;DHT22;24179;52.094;4.408;2024-01-25T05:59:45;6.50;99.90
38398;DHT22;24179;52.094;4.408;2024-01-25T06:02:45;6.50;99.90
38398;DHT22;24179;52.094;4.408;2024-01-25T06:05:46;6.40;99.90
38398;DHT22;24179;52.094;4.408;2024-01-25T06:08:46;6.50;99.90
38398;DHT22;24179;52.094;4.408;2024-01-25T06:11:47;6.40;99.90
38398;DHT22;24179;52.094;4.408;2024-01-25T06:14:47;6.40;99.90
38398;DHT22;24179;52.094;4.408;2024-01-25T06:17:48;6.40;99.90
38398;DHT22;24179;52.094;4.408;2024-01-25T06:20:49;6.40;99.90
38398;DHT22;24179;52.094;4.408;2024-01-25T06:23:50;6.30;99.90
38398;DHT22;24179;52.094;4.408;2024-01-25T06:26:53;6.30;99.90
38398;DHT22;24179;52.094;4.408;2024-01-25T06:29:53;6.40;99.90
38398;DHT22;24179;52.094;4.408;2024-01-25T06:32:54;6.30;99.90
38398;DHT22;24179;52.094;4.408;2024-01-25T06:35:55;6.30;99.90
38398;DHT22;24179;52.094;4.408;2024-01-25T06:38:55;6.30;99.90
38398;DHT22;24179;52.094;4.408;2024-01-25T06:41:56;6.20;99.90
38398;DHT22;24179;52.094;4.408;2024-01-25T06:44:57;6.30;99.90
38398;DHT22;24179;52.094;4.408;2024-01-25T06:47:57;6.20;99.90
38398;DHT22;24179;52.094;4.408;2024-01-25T06:50:58;6.20;99.90
38398;DHT22;24179;52.094;4.408;2024-01-25T06:53:58;6.20;99.90
38398;DHT22;24179;52.094;4.408;2024-01-25T06:56:59;6.20;99.90
38398;DHT22;24179;52.094;4.408;2024-01-25T06:59:59;6.20;99.90
38398;DHT22;24179;52.094;4.408;2024-01-25T07:03:00;6.20;99.90
38398;DHT22;24179;52.094;4.408;2024-01-25T07:06:01;6.10;99.90
38398;DHT22;24179;52.094;4.408;2024-01-25T07:09:01;6.10;99.90
38398;DHT22;24179;52.094;4.408;2024-01-25T07:12:02;6.20;99.90
38398;DHT22;24179;52.094;4.408;2024-01-25T07:15:04;6.10;99.90
38398;DHT22;24179;52.094;4.408;2024-01-25T07:18:04;6.10;99.90
38398;DHT22;24179;52.094;4.408;2024-01-25T07:21:05;6.10;99.90
38398;DHT22;24179;52.094;4.408;2024-01-25T07:24:06;6.10;99.90
38398;DHT22;24179;52.094;4.408;2024-01-25T07:27:06;6.10;99.90
38398;DHT22;24179;52.094;4.408;2024-01-25T07:30:07;6.00;99.90
38398;DHT22;24179;52.094;4.408;2024-01-25T07:33:09;6.00;99.90
38398;DHT22;24179;52.094;4.408;2024-01-25T07:36:09;6.00;99.90
38398;DHT22;24179;52.094;4.408;2024-01-25T07:39:10;6.00;99.90
38398;DHT22;24179;52.094;4.408;2024-01-25T07:42:12;6.00;99.90
38398;DHT22;24179;52.094;4.408;2024-01-25T07:45:12;6.00;99.90
38398;DHT22;24179;52.094;4.408;2024-01-25T07:48:13;6.00;99.90
38398;DHT22;24179;52.094;4.408;2024-01-25T07:51:14;5.90;99.90
38398;DHT22;24179;52.094;4.408;2024-01-25T07:54:14;6.00;99.90
38398;DHT22;24179;52.094;4.408;2024-01-25T07:57:15;6.00;99.90
38398;DHT22;24179;52.094;4.408;2024-01-25T08:00:16;5.90;99.90
38398;DHT22;24179;52.094;4.408;2024-01-25T08:03:17;6.00;99.90
38398;DHT22;24179;52.094;4.408;2024-01-25T08:06:17;5.90;99.90
38398;DHT22;24179;52.094;4.408;2024-01-25T08:09:18;6.00;99.90
38398;DHT22;24179;52.094;4.408;2024-01-25T08:12:19;6.00;99.90
38398;DHT22;24179;52.094;4.408;2024-01-25T08:15:19;6.00;99.90
38398;DHT22;24179;52.094;4.408;2024-01-25T08:18:20;5.90;99.90
38398;DHT22;24179;52.094;4.408;2024-01-25T08:21:23;5.90;99.90
38398;DHT22;24179;52.094;4.408;2024-01-25T08:24:23;6.00;99.90
38398;DHT22;24179;52.094;4.408;2024-01-25T08:27:24;5.90;99.90
38398;DHT22;24179;52.094;4.408;2024-01-25T08:30:25;6.00;99.90
38398;DHT22;24179;52.094;4.408;2024-01-25T08:33:26;5.90;99.90
38398;DHT22;24179;52.094;4.408;2024-01-25T08:36:26;5.90;99.90
38398;DHT22;24179;52.094;4.408;2024-01-25T08:39:27;5.90;99.90
38398;DHT22;24179;52.094;4.408;2024-01-25T08:42:28;5.90;99.90
38398;DHT22;24179;52.094;4.408;2024-01-25T08:45:28;5.90;99.90
38398;DHT22;24179;52.094;4.408;2024-01-25T08:48:29;6.00;99.90
38398;DHT22;24179;52.094;4.408;2024-01-25T08:51:29;6.00;99.90
38398;DHT22;24179;52.094;4.408;2024-01-25T08:54:30;6.00;99.90
38398;DHT22;24179;52.094;4.408;2024-01-25T08:57:31;6.00;99.90
38398;DHT22;24179;52.094;4.408;2024-01-25T09:00:32;6.00;99.90
38398;DHT22;24179;52.094;4.408;2024-01-25T09:03:33;6.00;99.90
38398;DHT22;24179;52.094;4.408;2024-01-25T09:06:33;6.00;99.90
38398;DHT22;24179;52.094;4.408;2024-01-25T09:09:34;6.00;99.90
38398;DHT22;24179;52.094;4.408;2024-01-25T09:12:35;6.00;99.90
38398;DHT22;24179;52.094;4.408;2024-01-25T09:15:36;6.10;99.90
38398;DHT22;24179;52.094;4.408;2024-01-25T09:18:37;6.10;99.90
38398;DHT22;24179;52.094;4.408;2024-01-25T09:21:40;6.10;99.90
38398;DHT22;24179;52.094;4.408;2024-01-25T09:24:41;6.10;99.90
38398;DHT22;24179;52.094;4.408;2024-01-25T09:27:41;6.10;99.90
38398;DHT22;24179;52.094;4.408;2024-01-25T09:30:42;6.10;99.90
38398;DHT22;24179;52.094;4.408;2024-01-25T09:33:43;6.10;99.90
38398;DHT22;24179;52.094;4.408;2024-01-25T09:36:43;6.20;99.90
38398;DHT22;24179;52.094;4.408;2024-01-25T09:39:44;6.20;99.90
38398;DHT22;24179;52.094;4.408;2024-01-25T09:42:44;6.20;99.90
38398;DHT22;24179;52.094;4.408;2024-01-25T09:45:46;6.20;99.90
38398;DHT22;24179;52.094;4.408;2024-01-25T09:48:49;6.20;99.90
38398;DHT22;24179;52.094;4.408;2024-01-25T09:51:51;6.20;99.90
38398;DHT22;24179;52.094;4.408;2024-01-25T09:54:53;6.30;99.90
38398;DHT22;24179;52.094;4.408;2024-01-25T09:57:55;6.20;99.90
38398;DHT22;24179;52.094;4.408;2024-01-25T10:00:56;6.30;99.90
38398;DHT22;24179;52.094;4.408;2024-01-25T10:03:57;6.30;99.90
38398;DHT22;24179;52.094;4.408;2024-01-25T10:06:58;6.30;99.90
38398;DHT22;24179;52.094;4.408;2024-01-25T10:09:59;6.30;99.90
38398;DHT22;24179;52.094;4.408;2024-01-25T10:12:59;6.30;99.90
38398;DHT22;24179;52.094;4.408;2024-01-25T10:16:00;6.40;99.90
38398;DHT22;24179;52.094;4.408;2024-01-25T10:19:01;6.30;99.90
38398;DHT22;24179;52.094;4.408;2024-01-25T10:22:06;6.40;99.90
38398;DHT22;24179;52.094;4.408;2024-01-25T10:25:14;6.40;99.90
38398;DHT22;24179;52.094;4.408;2024-01-25T10:28:17;6.40;99.90
38398;DHT22;24179;52.094;4.408;2024-01-25T10:31:18;6.40;99.90
38398;DHT22;24179;52.094;4.408;2024-01-25T10:34:20;6.40;99.90
38398;DHT22;24179;52.094;4.408;2024-01-25T10:37:23;6.40;99.90
38398;DHT22;24179;52.094;4.408;2024-01-25T10:40:26;6.40;99.90
38398;DHT22;24179;52.094;4.408;2024-01-25T10:43:30;6.50;99.90
38398;DHT22;24179;52.094;4.408;2024-01-25T10:46:31;6.50;99.90
38398;DHT22;24179;52.094;4.408;2024-01-25T10:49:32;6.50;99.90
38398;DHT22;24179;52.094;4.408;2024-01-25T10:52:33;6.60;99.90
38398;DHT22;24179;52.094;4.408;2024-01-25T10:55:34;6.50;99.90
38398;DHT22;24179;52.094;4.408;2024-01-25T10:58:35;6.50;99.90
38398;DHT22;24179;52.094;4.408;2024-01-25T11:01:36;6.60;99.90
38398;DHT22;24179;52.094;4.408;2024-01-25T11:04:36;6.60;99.90
38398;DHT22;24179;52.094;4.408;2024-01-25T11:07:50;6.60;99.90
38398;DHT22;24179;52.094;4.408;2024-01-25T11:10:51;6.60;99.90
38398;DHT22;24179;52.094;4.408;2024-01-25T11:13:55;6.60;99.90
38398;DHT22;24179;52.094;4.408;2024-01-25T11:16:56;6.70;99.90
38398;DHT22;24179;52.094;4.408;2024-01-25T11:20:00;6.60;99.90
38398;DHT22;24179;52.094;4.408;2024-01-25T11:26:01;6.60;99.90
38398;DHT22;24179;52.094;4.408;2024-01-25T11:29:02;6.70;99.90
38398;DHT22;24179;52.094;4.408;2024-01-25T11:32:03;6.70;99.90
38398;DHT22;24179;52.094;4.408;2024-01-25T11:35:04;6.70;99.90
38398;DHT22;24179;52.094;4.408;2024-01-25T11:38:05;6.70;99.90
38398;DHT22;24179;52.094;4.408;2024-01-25T11:41:06;6.70;99.90
38398;DHT22;24179;52.094;4.408;2024-01-25T11:44:06;6.80;99.90
38398;DHT22;24179;52.094;4.408;2024-01-25T11:47:07;6.70;99.90
38398;DHT22;24179;52.094;4.408;2024-01-25T11:50:10;6.80;99.90
38398;DHT22;24179;52.094;4.408;2024-01-25T11:53:11;6.80;99.90
38398;DHT22;24179;52.094;4.408;2024-01-25T11:56:24;6.80;99.90
38398;DHT22;24179;52.094;4.408;2024-01-25T11:59:25;6.90;99.90
38398;DHT22;24179;52.094;4.408;2024-01-25T12:02:26;6.90;99.90
38398;DHT22;24179;52.094;4.408;2024-01-25T12:05:27;6.90;99.90
38398;DHT22;24179;52.094;4.408;2024-01-25T12:08:28;6.90;99.90
38398;DHT22;24179;52.094;4.408;2024-01-25T12:11:28;7.00;99.90
38398;DHT22;24179;52.094;4.408;2024-01-25T12:14:29;7.00;99.90
38398;DHT22;24179;52.094;4.408;2024-01-25T12:17:30;7.00;99.90
38398;DHT22;24179;52.094;4.408;2024-01-25T12:20:31;7.00;99.90
38398;DHT22;24179;52.094;4.408;2024-01-25T12:23:33;7.00;99.90
38398;DHT22;24179;52.094;4.408;2024-01-25T12:26:34;7.10;99.90
38398;DHT22;24179;52.094;4.408;2024-01-25T12:29:35;7.10;99.90
38398;DHT22;24179;52.094;4.408;2024-01-25T12:32:36;7.10;99.90
38398;DHT22;24179;52.094;4.408;2024-01-25T12:35:37;7.10;99.90
38398;DHT22;24179;52.094;4.408;2024-01-25T12:38:37;7.10;99.90
38398;DHT22;24179;52.094;4.408;2024-01-25T12:41:38;7.10;99.90
38398;DHT22;24179;52.094;4.408;2024-01-25T12:44:39;7.10;99.90
38398;DHT22;24179;52.094;4.408;2024-01-25T12:47:40;7.10;99.90
38398;DHT22;24179;52.094;4.408;2024-01-25T12:50:41;7.20;99.90
38398;DHT22;24179;52.094;4.408;2024-01-25T12:53:41;7.20;99.90
38398;DHT22;24179;52.094;4.408;2024-01-25T12:56:42;7.20;99.90
38398;DHT22;24179;52.094;4.408;2024-01-25T12:59:43;7.30;99.90
38398;DHT22;24179;52.094;4.408;2024-01-25T13:02:43;7.30;99.90
38398;DHT22;24179;52.094;4.408;2024-01-25T13:05:44;7.40;99.90
38398;DHT22;24179;52.094;4.408;2024-01-25T13:08:44;7.40;99.90
38398;DHT22;24179;52.094;4.408;2024-01-25T13:11:46;7.40;99.90
38398;DHT22;24179;52.094;4.408;2024-01-25T13:14:47;7.40;99.90
38398;DHT22;24179;52.094;4.408;2024-01-25T13:17:47;7.40;99.90
38398;DHT22;24179;52.094;4.408;2024-01-25T13:20:48;7.40;99.90
38398;DHT22;24179;52.094;4.408;2024-01-25T13:23:48;7.50;99.90
38398;DHT22;24179;52.094;4.408;2024-01-25T13:26:49;7.50;99.90
38398;DHT22;24179;52.094;4.408;2024-01-25T13:29:49;7.60;99.90
38398;DHT22;24179;52.094;4.408;2024-01-25T13:32:50;7.60;99.90
38398;DHT22;24179;52.094;4.408;2024-01-25T13:35:51;7.60;99.90
38398;DHT22;24179;52.094;4.408;2024-01-25T13:38:51;7.70;99.90
38398;DHT22;24179;52.094;4.408;2024-01-25T13:41:52;7.70;99.90
38398;DHT22;24179;52.094;4.408;2024-01-25T13:44:52;7.70;99.90
38398;DHT22;24179;52.094;4.408;2024-01-25T13:47:53;7.70;99.90
38398;DHT22;24179;52.094;4.408;2024-01-25T13:50:53;7.80;99.90
38398;DHT22;24179;52.094;4.408;2024-01-25T13:53:54;7.80;99.90
38398;DHT22;24179;52.094;4.408;2024-01-25T13:56:55;7.80;99.90
38398;DHT22;24179;52.094;4.408;2024-01-25T13:59:56;7.80;99.90
38398;DHT22;24179;52.094;4.408;2024-01-25T14:02:56;7.90;99.90
38398;DHT22;24179;52.094;4.408;2024-01-25T14:05:57;7.90;99.90
38398;DHT22;24179;52.094;4.408;2024-01-25T14:08:57;7.90;99.90
38398;DHT22;24179;52.094;4.408;2024-01-25T14:11:58;7.90;99.90
38398;DHT22;24179;52.094;4.408;2024-01-25T14:14:58;7.90;99.90
38398;DHT22;24179;52.094;4.408;2024-01-25T14:17:59;8.00;99.90
38398;DHT22;24179;52.094;4.408;2024-01-25T14:21:00;7.90;99.90
38398;DHT22;24179;52.094;4.408;2024-01-25T14:24:00;8.00;99.90
38398;DHT22;24179;52.094;4.408;2024-01-25T14:27:01;7.80;99.90
38398;DHT22;24179;52.094;4.408;2024-01-25T14:30:02;7.90;99.90
38398;DHT22;24179;52.094;4.408;2024-01-25T14:33:04;8.00;99.90
38398;DHT22;24179;52.094;4.408;2024-01-25T14:36:05;7.90;99.90
38398;DHT22;24179;52.094;4.408;2024-01-25T14:39:05;8.00;99.90
38398;DHT22;24179;52.094;4.408;2024-01-25T14:42:12;8.00;99.90
38398;DHT22;24179;52.094;4.408;2024-01-25T14:45:13;8.00;99.90
38398;DHT22;24179;52.094;4.408;2024-01-25T14:48:13;8.00;99.90
38398;DHT22;24179;52.094;4.408;2024-01-25T14:51:14;8.00;99.90
38398;DHT22;24179;52.094;4.408;2024-01-25T14:54:15;8.00;99.90
38398;DHT22;24179;52.094;4.408;2024-01-25T14:57:15;8.10;99.90
38398;DHT22;24179;52.094;4.408;2024-01-25T15:00:16;8.00;99.90
38398;DHT22;24179;52.094;4.408;2024-01-25T15:03:20;8.00;99.90
38398;DHT22;24179;52.094;4.408;2024-01-25T15:06:20;8.10;99.90
38398;DHT22;24179;52.094;4.408;2024-01-25T15:09:21;8.10;99.90
38398;DHT22;24179;52.094;4.408;2024-01-25T15:12:21;8.00;99.90
38398;DHT22;24179;52.094;4.408;2024-01-25T15:15:22;8.00;99.90
38398;DHT22;24179;52.094;4.408;2024-01-25T15:18:24;8.00;99.90
38398;DHT22;24179;52.094;4.408;2024-01-25T15:21:25;8.00;99.90
38398;DHT22;24179;52.094;4.408;2024-01-25T15:24:27;8.10;99.90
38398;DHT22;24179;52.094;4.408;2024-01-25T15:27:31;8.00;99.90
38398;DHT22;24179;52.094;4.408;2024-01-25T15:30:32;8.10;99.90
38398;DHT22;24179;52.094;4.408;2024-01-25T15:33:32;8.10;99.90
38398;DHT22;24179;52.094;4.408;2024-01-25T15:36:33;8.10;99.90
38398;DHT22;24179;52.094;4.408;2024-01-25T15:39:36;8.10;99.90
38398;DHT22;24179;52.094;4.408;2024-01-25T15:42:37;8.00;99.90
38398;DHT22;24179;52.094;4.408;2024-01-25T15:45:38;8.10;99.90
38398;DHT22;24179;52.094;4.408;2024-01-25T15:48:38;8.10;99.90
38398;DHT22;24179;52.094;4.408;2024-01-25T15:51:39;8.10;99.90
38398;DHT22;24179;52.094;4.408;2024-01-25T15:54:40;8.10;99.90
38398;DHT22;24179;52.094;4.408;2024-01-25T15:57:40;8.10;99.90
38398;DHT22;24179;52.094;4.408;2024-01-25T16:00:41;8.10;99.90
38398;DHT22;24179;52.094;4.408;2024-01-25T16:03:41;8.10;99.90
38398;DHT22;24179;52.094;4.408;2024-01-25T16:06:42;8.10;99.90
38398;DHT22;24179;52.094;4.408;2024-01-25T16:09:43;8.20;99.90
38398;DHT22;24179;52.094;4.408;2024-01-25T16:12:43;8.10;99.90
38398;DHT22;24179;52.094;4.408;2024-01-25T16:15:44;8.10;99.90
38398;DHT22;24179;52.094;4.408;2024-01-25T16:18:45;8.10;99.90
38398;DHT22;24179;52.094;4.408;2024-01-25T16:21:45;8.10;99.90
38398;DHT22;24179;52.094;4.408;2024-01-25T16:24:46;8.20;99.90
38398;DHT22;24179;52.094;4.408;2024-01-25T16:27:47;8.10;99.90
38398;DHT22;24179;52.094;4.408;2024-01-25T16:30:49;8.10;99.90
38398;DHT22;24179;52.094;4.408;2024-01-25T16:33:49;8.10;99.90
38398;DHT22;24179;52.094;4.408;2024-01-25T16:36:50;8.10;99.90
38398;DHT22;24179;52.094;4.408;2024-01-25T16:39:50;8.10;99.90
38398;DHT22;24179;52.094;4.408;2024-01-25T16:42:51;8.10;99.90
38398;DHT22;24179;52.094;4.408;2024-01-25T16:45:52;8.10;99.90
38398;DHT22;24179;52.094;4.408;2024-01-25T16:48:54;8.20;99.90
38398;DHT22;24179;52.094;4.408;2024-01-25T16:51:55;8.10;99.90
38398;DHT22;24179;52.094;4.408;2024-01-25T16:54:55;8.20;99.90
38398;DHT22;24179;52.094;4.408;2024-01-25T16:57:56;8.10;99.90
38398;DHT22;24179;52.094;4.408;2024-01-25T17:00:57;8.20;99.90
38398;DHT22;24179;52.094;4.408;2024-01-25T17:03:57;8.20;99.90
38398;DHT22;24179;52.094;4.408;2024-01-25T17:06:58;8.10;99.90
38398;DHT22;24179;52.094;4.408;2024-01-25T17:09:58;8.20;99.90
38398;DHT22;24179;52.094;4.408;2024-01-25T17:12:59;8.10;99.90
38398;DHT22;24179;52.094;4.408;2024-01-25T17:16:00;8.20;99.90
38398;DHT22;24179;52.094;4.408;2024-01-25T17:19:00;8.20;99.90
38398;DHT22;24179;52.094;4.408;2024-01-25T17:22:01;8.10;99.90
38398;DHT22;24179;52.094;4.408;2024-01-25T17:25:05;8.20;99.90
38398;DHT22;24179;52.094;4.408;2024-01-25T17:28:06;8.20;99.90
38398;DHT22;24179;52.094;4.408;2024-01-25T17:31:07;8.20;99.90
38398;DHT22;24179;52.094;4.408;2024-01-25T17:34:07;8.20;99.90
38398;DHT22;24179;52.094;4.408;2024-01-25T17:37:08;8.20;99.90
38398;DHT22;24179;52.094;4.408;2024-01-25T17:40:09;8.40;99.90
38398;DHT22;24179;52.094;4.408;2024-01-25T17:43:10;8.30;99.90
38398;DHT22;24179;52.094;4.408;2024-01-25T17:46:10;8.30;99.90
38398;DHT22;24179;52.094;4.408;2024-01-25T17:49:11;8.30;99.90
38398;DHT22;24179;52.094;4.408;2024-01-25T17:52:12;8.30;99.90
38398;DHT22;24179;52.094;4.408;2024-01-25T17:55:13;8.40;99.90
38398;DHT22;24179;52.094;4.408;2024-01-25T17:58:13;8.30;99.90
38398;DHT22;24179;52.094;4.408;2024-01-25T18:01:14;8.40;99.90
38398;DHT22;24179;52.094;4.408;2024-01-25T18:04:15;8.40;99.90
38398;DHT22;24179;52.094;4.408;2024-01-25T18:07:15;8.50;99.90
38398;DHT22;24179;52.094;4.408;2024-01-25T18:10:16;8.30;99.90
38398;DHT22;24179;52.094;4.408;2024-01-25T18:13:17;8.40;99.90
38398;DHT22;24179;52.094;4.408;2024-01-25T18:16:17;8.40;99.90
38398;DHT22;24179;52.094;4.408;2024-01-25T18:19:18;8.40;99.90
38398;DHT22;24179;52.094;4.408;2024-01-25T18:22:18;8.40;99.90
38398;DHT22;24179;52.094;4.408;2024-01-25T18:25:19;8.40;99.90
38398;DHT22;24179;52.094;4.408;2024-01-25T18:28:21;8.40;99.90
38398;DHT22;24179;52.094;4.408;2024-01-25T18:31:21;8.40;99.90
38398;DHT22;24179;52.094;4.408;2024-01-25T18:34:22;8.40;99.90
38398;DHT22;24179;52.094;4.408;2024-01-25T18:37:22;8.40;99.90
38398;DHT22;24179;52.094;4.408;2024-01-25T18:40:23;8.50;99.90
38398;DHT22;24179;52.094;4.408;2024-01-25T18:43:23;8.50;99.90
38398;DHT22;24179;52.094;4.408;2024-01-25T18:46:24;8.50;99.90
38398;DHT22;24179;52.094;4.408;2024-01-25T18:49:25;8.50;99.90
38398;DHT22;24179;52.094;4.408;2024-01-25T18:52:26;8.50;99.90
38398;DHT22;24179;52.094;4.408;2024-01-25T18:55:27;8.50;99.90
38398;DHT22;24179;52.094;4.408;2024-01-25T18:58:28;8.50;99.90
38398;DHT22;24179;52.094;4.408;2024-01-25T19:01:28;8.60;99.90
38398;DHT22;24179;52.094;4.408;2024-01-25T19:04:29;8.60;99.90
38398;DHT22;24179;52.094;4.408;2024-01-25T19:07:30;8.60;99.90
38398;DHT22;24179;52.094;4.408;2024-01-25T19:10:32;8.60;99.90
38398;DHT22;24179;52.094;4.408;2024-01-25T19:13:33;8.70;99.90
38398;DHT22;24179;52.094;4.408;2024-01-25T19:16:33;8.60;99.90
38398;DHT22;24179;52.094;4.408;2024-01-25T19:19:34;8.60;99.90
38398;DHT22;24179;52.094;4.408;2024-01-25T19:22:34;8.60;99.90